createdAt,value
2022-10-01T00:02:23.499Z,100347.66
2022-10-01T00:04:51.863Z,100335.09
2022-10-01T00:07:19.761Z,100326.19
2022-10-01T00:09:47.919Z,100317.31
2022-10-01T00:12:16.623Z,100314.63
2022-10-01T00:14:45.129Z,100309.25
2022-10-01T00:17:13.029Z,100289.63
2022-10-01T00:19:42.253Z,100286.09
2022-10-01T00:22:12.525Z,100287.81
2022-10-01T00:24:40.799Z,100288.78
2022-10-01T00:27:08.890Z,100284.38
2022-10-01T00:29:37.693Z,100279.84
2022-10-01T00:32:05.671Z,100289.72
2022-10-01T00:34:33.604Z,100287.06
2022-10-01T00:37:02.883Z,100280.84
2022-10-01T00:39:30.798Z,100285.13
2022-10-01T00:41:58.658Z,100261.09
2022-10-01T00:44:33.321Z,100253.03
2022-10-01T00:47:10.522Z,100245.75
2022-10-01T00:49:40.965Z,100244.88
2022-10-01T00:52:15.693Z,100242.22
2022-10-01T00:54:51.398Z,100233.19
2022-10-01T00:57:23.177Z,100242.94
2022-10-01T00:59:52.976Z,100241.09
2022-10-01T01:02:21.354Z,100263.44
2022-10-01T01:04:49.383Z,100266.13
2022-10-01T01:07:19.574Z,100269.66
2022-10-01T01:09:49.789Z,100271.34
2022-10-01T01:12:34.689Z,100257.19
2022-10-01T01:15:15.196Z,100238.53
2022-10-01T01:17:53.308Z,100240.38
2022-10-01T01:20:42.881Z,100218.78
2022-10-01T01:23:27.203Z,100203.69
2022-10-01T01:26:02.737Z,100193.94
2022-10-01T01:28:35.514Z,100186.88
2022-10-01T01:31:09.093Z,100173.47
2022-10-01T01:33:40.158Z,100160.91
2022-10-01T01:36:12.325Z,100142.22
2022-10-01T01:38:41.524Z,100139.44
2022-10-01T01:41:11.874Z,100128.72
2022-10-01T01:43:46.926Z,100118.94
2022-10-01T01:46:17.746Z,100118.94
2022-10-01T01:48:49.189Z,100112.00
2022-10-01T01:51:25.982Z,100106.50
2022-10-01T01:53:55.046Z,100105.81
2022-10-01T01:56:23.345Z,100116.53
2022-10-01T01:58:53.993Z,100111.16
2022-10-01T02:01:36.228Z,100114.78
2022-10-01T02:04:07.840Z,100123.78
2022-10-01T02:06:50.033Z,100124.69
2022-10-01T02:09:29.188Z,100122.84
2022-10-01T02:12:09.419Z,100117.56
2022-10-01T02:14:48.994Z,100116.72
2022-10-01T02:17:22.382Z,100103.31
2022-10-01T02:19:56.046Z,100098.19
2022-10-01T02:22:29.345Z,100091.84
2022-10-01T02:24:59.545Z,100086.63
2022-10-01T02:27:30.800Z,100053.59
2022-10-01T02:30:07.405Z,100047.50
2022-10-01T02:32:37.844Z,100044.81
2022-10-01T02:35:08.557Z,100041.28
2022-10-01T02:37:38.892Z,100036.91
2022-10-01T02:40:11.727Z,100029.94
2022-10-01T02:42:41.156Z,100034.44
2022-10-01T02:45:14.252Z,100023.72
2022-10-01T02:47:45.993Z,100020.91
2022-10-01T02:50:14.966Z,100024.56
2022-10-01T02:52:45.673Z,100008.63
2022-10-01T02:55:15.845Z,100004.97
2022-10-01T02:57:42.993Z,100005.94
2022-10-01T03:00:15.787Z,100001.56
2022-10-01T03:02:47.398Z,100002.53
2022-10-01T03:05:16.130Z,99996.44
2022-10-01T03:07:44.312Z,99994.75
2022-10-01T03:10:15.002Z,99985.81
2022-10-01T03:12:46.538Z,99981.44
2022-10-01T03:15:19.178Z,99984.97
2022-10-01T03:17:47.400Z,99989.50
2022-10-01T03:20:15.266Z,99986.81
2022-10-01T03:22:46.106Z,99985.13
2022-10-01T03:25:14.178Z,99972.69
2022-10-01T03:27:42.301Z,99970.00
2022-10-01T03:30:10.995Z,99976.31
2022-10-01T03:32:40.439Z,99977.19
2022-10-01T03:35:11.008Z,99978.16
2022-10-01T03:37:39.004Z,99983.53
2022-10-01T03:40:08.125Z,99986.19
2022-10-01T03:42:36.047Z,99988.03
2022-10-01T03:45:04.147Z,99982.66
2022-10-01T03:47:32.064Z,99984.38
2022-10-01T03:50:01.314Z,99991.69
2022-10-01T03:52:29.234Z,99998.75
2022-10-01T03:54:57.379Z,99999.59
2022-10-01T03:57:25.400Z,99987.19
2022-10-01T03:59:53.351Z,99989.00
2022-10-01T04:02:22.079Z,99987.31
2022-10-01T04:04:50.640Z,99982.06
2022-10-01T04:07:19.935Z,99985.59
2022-10-01T04:09:47.809Z,99982.91
2022-10-01T04:12:15.788Z,99983.03
2022-10-01T04:14:43.688Z,99984.75
2022-10-01T04:17:11.614Z,99983.91
2022-10-01T04:19:39.455Z,99990.09
2022-10-01T04:22:09.457Z,99990.25
2022-10-01T04:24:38.735Z,99987.41
2022-10-01T04:27:06.603Z,99990.25
2022-10-01T04:29:39.351Z,99983.91
2022-10-01T04:32:08.412Z,99985.72
2022-10-01T04:34:54.272Z,99991.09
2022-10-01T04:37:22.838Z,99997.28
2022-10-01T04:39:52.070Z,99995.47
2022-10-01T04:42:20.663Z,99986.56
2022-10-01T04:44:48.728Z,99992.78
2022-10-01T04:47:16.655Z,99983.91
2022-10-01T04:49:44.494Z,99985.72
2022-10-01T04:52:12.599Z,99990.34
2022-10-01T04:54:40.461Z,99991.09
2022-10-01T04:57:09.739Z,100002.91
2022-10-01T04:59:37.661Z,99999.25
2022-10-01T05:02:07.906Z,99996.69
2022-10-01T05:04:35.843Z,100005.56
2022-10-01T05:07:03.666Z,100006.56
2022-10-01T05:09:34.230Z,100023.50
2022-10-01T05:12:02.680Z,100020.94
2022-10-01T05:14:31.929Z,100023.63
2022-10-01T05:17:03.647Z,100023.63
2022-10-01T05:19:31.787Z,100034.34
2022-10-01T05:21:59.748Z,100031.66
2022-10-01T05:24:27.663Z,100036.19
2022-10-01T05:26:55.598Z,100040.66
2022-10-01T05:29:23.497Z,100046.16
2022-10-01T05:31:52.832Z,100053.09
2022-10-01T05:34:20.865Z,100053.19
2022-10-01T05:36:49.010Z,100056.72
2022-10-01T05:39:17.112Z,100062.97
2022-10-01T05:41:45.010Z,100064.78
2022-10-01T05:44:12.951Z,100062.97
2022-10-01T05:46:41.648Z,100065.75
2022-10-01T05:49:10.873Z,100059.69
2022-10-01T05:51:39.335Z,100071.13
2022-10-01T05:54:09.632Z,100081.00
2022-10-01T05:56:37.935Z,100091.72
2022-10-01T05:59:07.012Z,100087.34
2022-10-01T06:01:35.129Z,100090.84
2022-10-01T06:04:03.396Z,100087.19
2022-10-01T06:06:32.676Z,100078.31
2022-10-01T06:09:00.677Z,100077.59
2022-10-01T06:11:28.752Z,100084.03
2022-10-01T06:13:56.652Z,100088.78
2022-10-01T06:16:24.578Z,100090.84
2022-10-01T06:18:57.453Z,100086.47
2022-10-01T06:21:25.770Z,100099.09
2022-10-01T06:23:56.235Z,100090.72
2022-10-01T06:26:24.427Z,100091.03
2022-10-01T06:28:52.977Z,100089.34
2022-10-01T06:31:21.291Z,100089.09
2022-10-01T06:33:49.221Z,100091.56
2022-10-01T06:36:17.226Z,100106.44
2022-10-01T06:38:45.507Z,100108.00
2022-10-01T06:41:14.780Z,100110.56
2022-10-01T06:43:42.671Z,100107.75
2022-10-01T06:46:11.209Z,100114.72
2022-10-01T06:48:39.200Z,100120.09
2022-10-01T06:51:08.605Z,100120.81
2022-10-01T06:53:35.822Z,100120.69
2022-10-01T06:56:07.665Z,100122.41
2022-10-01T06:58:37.430Z,100110.84
2022-10-01T07:01:05.398Z,100123.16
2022-10-01T07:03:33.336Z,100119.50
2022-10-01T07:06:08.000Z,100122.16
2022-10-01T07:08:35.975Z,100120.34
2022-10-01T07:11:05.005Z,100125.56
2022-10-01T07:13:32.928Z,100125.56
2022-10-01T07:16:03.899Z,100127.31
2022-10-01T07:18:31.933Z,100118.50
2022-10-01T07:21:00.075Z,100135.19
2022-10-01T07:23:30.352Z,100136.25
2022-10-01T07:25:58.982Z,100141.75
2022-10-01T07:28:28.163Z,100146.03
2022-10-01T07:31:01.158Z,100152.09
2022-10-01T07:33:30.796Z,100164.44
2022-10-01T07:36:01.647Z,100162.47
2022-10-01T07:38:29.670Z,100156.16
2022-10-01T07:40:58.993Z,100160.53
2022-10-01T07:43:27.066Z,100158.00
2022-10-01T07:45:58.070Z,100172.34
2022-10-01T07:48:26.525Z,100168.09
2022-10-01T07:50:57.934Z,100179.75
2022-10-01T07:53:27.493Z,100180.00
2022-10-01T07:55:55.374Z,100185.59
2022-10-01T07:58:24.083Z,100181.09
2022-10-01T08:00:56.215Z,100192.66
2022-10-01T08:03:24.342Z,100196.31
2022-10-01T08:05:53.073Z,100191.06
2022-10-01T08:08:22.362Z,100204.81
2022-10-01T08:10:50.979Z,100217.72
2022-10-01T08:13:24.894Z,100216.84
2022-10-01T08:15:54.901Z,100217.84
2022-10-01T08:18:23.705Z,100221.22
2022-10-01T08:20:52.500Z,100209.53
2022-10-01T08:23:20.419Z,100215.53
2022-10-01T08:25:49.645Z,100211.88
2022-10-01T08:28:17.755Z,100218.97
2022-10-01T08:30:45.679Z,100220.66
2022-10-01T08:33:14.788Z,100220.66
2022-10-01T08:35:44.390Z,100217.13
2022-10-01T08:38:13.449Z,100220.66
2022-10-01T08:40:45.030Z,100222.38
2022-10-01T08:43:29.854Z,100223.22
2022-10-01T08:46:01.645Z,100224.94
2022-10-01T08:48:39.637Z,100225.78
2022-10-01T08:51:17.088Z,100237.25
2022-10-01T08:53:49.370Z,100237.16
2022-10-01T08:56:19.973Z,100237.88
2022-10-01T08:58:57.753Z,100247.63
2022-10-01T09:01:25.987Z,100254.56
2022-10-01T09:03:54.999Z,100255.31
2022-10-01T09:06:27.757Z,100255.31
2022-10-01T09:09:32.937Z,100255.31
2022-10-01T09:12:13.211Z,100264.31
2022-10-01T09:14:56.734Z,100275.91
2022-10-01T09:17:38.390Z,100275.91
2022-10-01T09:20:19.450Z,100277.00
2022-10-01T09:23:00.114Z,100281.94
2022-10-01T09:25:29.006Z,100280.47
2022-10-01T09:28:04.095Z,100278.75
2022-10-01T09:30:34.108Z,100283.28
2022-10-01T09:33:12.065Z,100292.59
2022-10-01T09:35:45.362Z,100288.56
2022-10-01T09:38:20.044Z,100293.06
2022-10-01T09:40:54.929Z,100295.75
2022-10-01T09:43:24.726Z,100297.66
2022-10-01T09:45:56.550Z,100307.53
2022-10-01T09:48:31.599Z,100308.59
2022-10-01T09:51:05.342Z,100304.22
2022-10-01T09:53:37.853Z,100307.75
2022-10-01T09:56:12.896Z,100305.19
2022-10-01T09:58:47.728Z,100313.09
2022-10-01T10:01:26.264Z,100308.50
2022-10-01T10:03:56.251Z,100307.53
2022-10-01T10:06:28.188Z,100318.25
2022-10-01T10:08:57.973Z,100316.53
2022-10-01T10:11:28.606Z,100319.94
2022-10-01T10:14:00.341Z,100323.38
2022-10-01T10:16:31.885Z,100322.41
2022-10-01T10:19:03.921Z,100310.63
2022-10-01T10:21:35.098Z,100320.88
2022-10-01T10:24:05.461Z,100314.31
2022-10-01T10:26:35.974Z,100322.38
2022-10-01T10:29:05.763Z,100317.97
2022-10-01T10:31:42.042Z,100327.00
2022-10-01T10:34:17.511Z,100331.59
2022-10-01T10:36:47.681Z,100329.78
2022-10-01T10:39:22.844Z,100337.81
2022-10-01T10:41:53.842Z,100342.31
2022-10-01T10:44:25.101Z,100340.47
2022-10-01T10:47:00.504Z,100347.56
2022-10-01T10:49:31.305Z,100350.25
2022-10-01T10:52:01.146Z,100349.28
2022-10-01T10:54:32.868Z,100362.81
2022-10-01T10:57:03.297Z,100362.69
2022-10-01T10:59:35.765Z,100365.25
2022-10-01T11:02:14.341Z,100366.00
2022-10-01T11:04:44.425Z,100368.69
2022-10-01T11:07:21.645Z,100380.13
2022-10-01T11:10:04.401Z,100387.09
2022-10-01T11:12:46.748Z,100385.03
2022-10-01T11:15:30.656Z,100391.03
2022-10-01T11:18:19.335Z,100399.81
2022-10-01T11:20:56.198Z,100404.09
2022-10-01T11:23:42.412Z,100415.69
2022-10-01T11:26:19.374Z,100413.75
2022-10-01T11:28:55.179Z,100420.81
2022-10-01T11:31:32.784Z,100429.72
2022-10-01T11:34:18.994Z,100423.50
2022-10-01T11:36:56.397Z,100432.31
2022-10-01T11:39:28.455Z,100429.63
2022-10-01T11:42:02.143Z,100434.00
2022-10-01T11:44:36.367Z,100439.38
2022-10-01T11:47:09.641Z,100438.38
2022-10-01T11:49:59.585Z,100439.25
2022-10-01T11:52:38.301Z,100437.31
2022-10-01T11:55:32.718Z,100442.56
2022-10-01T11:58:25.549Z,100449.63
2022-10-01T12:01:01.424Z,100459.41
2022-10-01T12:03:38.198Z,100469.16
2022-10-01T12:06:14.776Z,100470.84
2022-10-01T12:08:48.305Z,100474.38
2022-10-01T12:11:23.195Z,100484.25
2022-10-01T12:14:00.257Z,100473.44
2022-10-01T12:16:40.284Z,100480.59
2022-10-01T12:19:15.056Z,100482.34
2022-10-01T12:21:49.622Z,100488.56
2022-10-01T12:24:21.475Z,100485.75
2022-10-01T12:27:03.061Z,100485.75
2022-10-01T12:29:42.675Z,100510.75
2022-10-01T12:32:23.593Z,100508.81
2022-10-01T12:35:05.258Z,100510.66
2022-10-01T12:37:52.974Z,100509.66
2022-10-01T12:40:30.961Z,100524.91
2022-10-01T12:43:30.010Z,100560.63
2022-10-01T12:46:05.210Z,100545.50
2022-10-01T12:48:42.270Z,100539.16
2022-10-01T12:51:29.589Z,100541.09
2022-10-01T12:54:13.394Z,100553.56
2022-10-01T12:56:46.800Z,100559.75
2022-10-01T12:59:38.524Z,100561.59
2022-10-01T13:02:20.230Z,100567.91
2022-10-01T13:05:03.440Z,100571.47
2022-10-01T13:07:46.941Z,100570.59
2022-10-01T13:10:27.598Z,100577.78
2022-10-01T13:13:07.762Z,100581.31
2022-10-01T13:15:39.119Z,100579.50
2022-10-01T13:18:19.295Z,100584.97
2022-10-01T13:20:57.684Z,100589.34
2022-10-01T13:23:34.006Z,100590.34
2022-10-01T13:26:09.061Z,100593.00
2022-10-01T13:28:58.787Z,100598.38
2022-10-01T13:31:36.261Z,100600.31
2022-10-01T13:34:04.896Z,100605.56
2022-10-01T13:36:34.573Z,100614.59
2022-10-01T13:39:02.997Z,100607.50
2022-10-01T13:41:34.820Z,100611.13
2022-10-01T13:44:22.869Z,100616.50
2022-10-01T13:46:53.446Z,100623.59
2022-10-01T13:49:26.297Z,100617.34
2022-10-01T13:51:55.059Z,100620.03
2022-10-01T13:54:28.726Z,100617.47
2022-10-01T13:57:08.759Z,100620.03
2022-10-01T13:59:37.872Z,100641.50
2022-10-01T14:02:33.682Z,100640.63
2022-10-01T14:05:28.353Z,100655.88
2022-10-01T14:08:11.793Z,100658.53
2022-10-01T14:10:59.272Z,100663.81
2022-10-01T14:13:48.762Z,100663.19
2022-10-01T14:16:18.330Z,100659.94
2022-10-01T14:18:50.233Z,100668.22
2022-10-01T14:21:36.169Z,100674.44
2022-10-01T14:24:15.766Z,100659.19
2022-10-01T14:26:52.026Z,100685.03
2022-10-01T14:29:35.234Z,100692.09
2022-10-01T14:32:17.538Z,100698.31
2022-10-01T14:34:57.216Z,100689.34
2022-10-01T14:37:25.291Z,100704.44
2022-10-01T14:40:02.599Z,100702.63
2022-10-01T14:42:30.604Z,100702.63
2022-10-01T14:44:59.943Z,100703.47
2022-10-01T14:47:34.954Z,100704.34
2022-10-01T14:50:11.382Z,100699.84
2022-10-01T14:52:46.287Z,100698.13
2022-10-01T14:55:15.768Z,100698.13
2022-10-01T14:57:47.330Z,100705.22
2022-10-01T15:00:19.083Z,100707.03
2022-10-01T15:02:49.217Z,100709.63
2022-10-01T15:05:26.157Z,100715.94
2022-10-01T15:07:54.600Z,100715.94
2022-10-01T15:10:28.589Z,100719.47
2022-10-01T15:12:57.326Z,100721.19
2022-10-01T15:15:35.320Z,100727.53
2022-10-01T15:18:05.360Z,100724.72
2022-10-01T15:20:33.627Z,100746.19
2022-10-01T15:23:02.029Z,100742.63
2022-10-01T15:25:32.786Z,100750.56
2022-10-01T15:28:00.975Z,100745.31
2022-10-01T15:30:30.528Z,100746.28
2022-10-01T15:32:59.064Z,100748.00
2022-10-01T15:35:27.254Z,100754.22
2022-10-01T15:38:00.520Z,100762.25
2022-10-01T15:40:35.505Z,100762.38
2022-10-01T15:43:26.432Z,100774.94
2022-10-01T15:46:17.283Z,100777.69
2022-10-01T15:48:46.185Z,100788.53
2022-10-01T15:51:20.202Z,100789.47
2022-10-01T15:53:48.149Z,100795.72
2022-10-01T15:56:20.080Z,100796.47
2022-10-01T15:58:52.236Z,100800.84
2022-10-01T16:01:23.948Z,100803.53
2022-10-01T16:04:01.553Z,100805.28
2022-10-01T16:06:35.807Z,100805.28
2022-10-01T16:09:08.129Z,100813.34
2022-10-01T16:11:52.858Z,100812.34
2022-10-01T16:14:30.699Z,100820.41
2022-10-01T16:17:28.005Z,100823.94
2022-10-01T16:19:57.936Z,100828.44
2022-10-01T16:22:28.970Z,100833.81
2022-10-01T16:24:58.328Z,100841.84
2022-10-01T16:27:29.303Z,100834.78
2022-10-01T16:30:05.689Z,100838.31
2022-10-01T16:32:35.821Z,100846.34
2022-10-01T16:35:18.734Z,100845.50
2022-10-01T16:37:48.228Z,100858.06
2022-10-01T16:40:16.615Z,100853.63
2022-10-01T16:42:45.840Z,100854.50
2022-10-01T16:45:17.787Z,100867.03
2022-10-01T16:47:47.846Z,100867.91
2022-10-01T16:50:18.724Z,100877.75
2022-10-01T16:52:46.753Z,100874.22
2022-10-01T16:55:22.549Z,100877.88
2022-10-01T16:57:50.809Z,100889.47
2022-10-01T17:00:20.811Z,100885.81
2022-10-01T17:02:50.134Z,100896.66
2022-10-01T17:05:20.623Z,100902.00
2022-10-01T17:07:48.996Z,100906.41
2022-10-01T17:10:18.622Z,100911.78
2022-10-01T17:12:47.768Z,100919.06
2022-10-01T17:15:18.192Z,100921.16
2022-10-01T17:17:46.757Z,100927.69
2022-10-01T17:20:16.657Z,100932.19
2022-10-01T17:22:44.666Z,100939.19
2022-10-01T17:25:16.690Z,100940.91
2022-10-01T17:27:44.809Z,100938.22
2022-10-01T17:30:13.200Z,100951.44
2022-10-01T17:32:42.927Z,100942.44
2022-10-01T17:35:11.438Z,100952.19
2022-10-01T17:37:40.875Z,100946.75
2022-10-01T17:40:11.217Z,100951.25
2022-10-01T17:42:41.754Z,100955.53
2022-10-01T17:45:11.809Z,100958.22
2022-10-01T17:47:44.793Z,100961.75
2022-10-01T17:50:13.601Z,100960.81
2022-10-01T17:52:44.837Z,100966.16
2022-10-01T17:55:13.200Z,100979.56
2022-10-01T17:57:41.151Z,100995.66
2022-10-01T18:00:09.929Z,100994.69
2022-10-01T18:02:42.073Z,101004.56
2022-10-01T18:05:12.608Z,101011.94
2022-10-01T18:07:42.501Z,101011.38
2022-10-01T18:10:12.731Z,101006.97
2022-10-01T18:12:41.280Z,101017.69
2022-10-01T18:15:10.634Z,101014.06
2022-10-01T18:17:43.392Z,101008.72
2022-10-01T18:20:20.003Z,101011.38
2022-10-01T18:22:49.406Z,101022.00
2022-10-01T18:25:19.306Z,101028.22
2022-10-01T18:27:50.107Z,101032.63
2022-10-01T18:30:20.216Z,101033.47
2022-10-01T18:32:51.909Z,101041.53
2022-10-01T18:35:23.159Z,101045.16
2022-10-01T18:37:55.806Z,101054.06
2022-10-01T18:40:28.787Z,101055.81
2022-10-01T18:43:01.033Z,101068.34
2022-10-01T18:45:43.167Z,101075.44
2022-10-01T18:48:38.189Z,101068.34
2022-10-01T18:51:16.936Z,101069.22
2022-10-01T18:54:10.834Z,101074.59
2022-10-01T18:56:45.929Z,101076.47
2022-10-01T18:59:43.566Z,101082.69
2022-10-01T19:02:35.041Z,101080.03
2022-10-01T19:05:35.638Z,101081.75
2022-10-01T19:08:17.953Z,101083.56
2022-10-01T19:10:51.447Z,101087.09
2022-10-01T19:13:26.043Z,101088.00
2022-10-01T19:16:06.984Z,101096.03
2022-10-01T19:18:54.245Z,101094.28
2022-10-01T19:21:29.458Z,101101.47
2022-10-01T19:24:16.749Z,101102.44
2022-10-01T19:26:57.255Z,101108.66
2022-10-01T19:29:41.744Z,101101.75
2022-10-01T19:32:14.389Z,101112.59
2022-10-01T19:34:47.313Z,101111.63
2022-10-01T19:37:21.682Z,101122.34
2022-10-01T19:39:52.557Z,101121.50
2022-10-01T19:42:27.146Z,101117.97
2022-10-01T19:45:01.323Z,101123.31
2022-10-01T19:47:39.706Z,101125.16
2022-10-01T19:50:19.501Z,101127.72
2022-10-01T19:52:51.425Z,101139.31
2022-10-01T19:55:22.960Z,101130.50
2022-10-01T19:57:52.957Z,101135.88
2022-10-01T20:00:23.050Z,101143.81
2022-10-01T20:02:57.875Z,101146.59
2022-10-01T20:05:29.793Z,101151.06
2022-10-01T20:08:04.688Z,101146.59
2022-10-01T20:10:39.064Z,101160.94
2022-10-01T20:13:26.071Z,101157.31
2022-10-01T20:16:01.189Z,101160.94
2022-10-01T20:18:38.445Z,101164.47
2022-10-01T20:21:24.261Z,101167.16
2022-10-01T20:23:59.846Z,101165.44
2022-10-01T20:26:38.557Z,101176.16
2022-10-01T20:29:33.503Z,101178.78
2022-10-01T20:32:10.442Z,101181.53
2022-10-01T20:34:46.287Z,101177.03
2022-10-01T20:37:34.788Z,101171.66
2022-10-01T20:40:06.705Z,101173.47
2022-10-01T20:42:41.450Z,101174.44
2022-10-01T20:45:19.211Z,101180.66
2022-10-01T20:47:53.968Z,101184.31
2022-10-01T20:50:29.032Z,101186.88
2022-10-01T20:53:06.071Z,101184.31
2022-10-01T20:55:40.592Z,101189.56
2022-10-01T20:58:15.625Z,101193.09
2022-10-01T21:00:47.124Z,101186.88
2022-10-01T21:03:26.673Z,101196.94
2022-10-01T21:05:58.221Z,101195.22
2022-10-01T21:08:39.987Z,101201.44
2022-10-01T21:11:14.478Z,101201.44
2022-10-01T21:13:48.903Z,101196.19
2022-10-01T21:16:40.091Z,101207.66
2022-10-01T21:19:20.615Z,101213.00
2022-10-01T21:21:57.194Z,101219.34
2022-10-01T21:24:37.417Z,101214.84
2022-10-01T21:27:24.059Z,101216.66
2022-10-01T21:30:13.561Z,101223.75
2022-10-01T21:33:14.033Z,101213.97
2022-10-01T21:35:55.095Z,101217.53
2022-10-01T21:38:32.147Z,101222.97
2022-10-01T21:41:32.923Z,101228.34
2022-10-01T21:44:25.059Z,101219.44
2022-10-01T21:46:59.566Z,101221.16
2022-10-01T21:49:40.230Z,101217.69
2022-10-01T21:52:16.595Z,101221.22
2022-10-01T21:55:17.145Z,101222.19
2022-10-01T21:58:04.899Z,101222.19
2022-10-01T22:00:33.285Z,101226.69
2022-10-01T22:03:12.409Z,101232.91
2022-10-01T22:05:50.331Z,101227.66
2022-10-01T22:08:42.280Z,101230.25
2022-10-01T22:11:15.984Z,101234.00
2022-10-01T22:13:55.935Z,101234.84
2022-10-01T22:16:27.925Z,101228.63
2022-10-01T22:18:58.212Z,101241.94
2022-10-01T22:21:34.727Z,101250.94
2022-10-01T22:24:07.476Z,101245.56
2022-10-01T22:26:41.376Z,101250.94
2022-10-01T22:29:17.044Z,101250.94
2022-10-01T22:31:49.039Z,101258.00
2022-10-01T22:34:21.208Z,101263.38
2022-10-01T22:36:55.424Z,101263.47
2022-10-01T22:39:25.809Z,101267.94
2022-10-01T22:42:00.056Z,101265.25
2022-10-01T22:44:29.433Z,101264.41
2022-10-01T22:47:18.391Z,101273.41
2022-10-01T22:50:00.228Z,101279.63
2022-10-01T22:52:36.976Z,101264.50
2022-10-01T22:55:29.612Z,101273.50
2022-10-01T22:58:06.356Z,101279.72
2022-10-01T23:00:40.950Z,101281.56
2022-10-01T23:03:32.881Z,101275.31
2022-10-01T23:06:07.285Z,101280.78
2022-10-01T23:08:45.061Z,101283.44
2022-10-01T23:11:22.689Z,101288.81
2022-10-01T23:14:01.354Z,101288.91
2022-10-01T23:16:36.739Z,101282.69
2022-10-01T23:19:20.892Z,101299.69
2022-10-01T23:21:59.412Z,101299.69
2022-10-01T23:24:42.943Z,101302.38
2022-10-01T23:27:22.640Z,101309.56
2022-10-01T23:30:03.771Z,101299.81
2022-10-01T23:32:51.125Z,101300.75
2022-10-01T23:35:21.283Z,101301.63
2022-10-01T23:38:13.898Z,101305.22
2022-10-01T23:40:44.916Z,101307.84
2022-10-01T23:43:20.385Z,101302.56
2022-10-01T23:45:53.464Z,101305.22
2022-10-01T23:48:28.225Z,101310.59
2022-10-01T23:51:02.464Z,101321.41
2022-10-01T23:53:36.773Z,101329.47
2022-10-01T23:56:29.389Z,101328.59
2022-10-01T23:59:01.510Z,101328.59
